Time;durP1;ratioP1;P1;durP2;ratioP2;P2;SDS_P1;SDS_P2;PMS_P1;PMS_P2;Temp;Humidity;BMP_temperature;BMP_pressure;BME280_temperature;BME280_humidity;BME280_pressure;Samples;Min_cycle;Max_cycle;Signal;HPM_P1;HPM_P2
2022/03/07 00:00:49;;;;;;;3.60;2.27;;;;;;;0.27;72.94;101550.13;5030680;28;20215;-72
2022/03/07 00:03:15;;;;;;;2.50;2.30;;;;;;;0.25;73.77;101552.19;5012924;28;20618;-73
2022/03/07 00:05:40;;;;;;;3.37;2.97;;;;;;;0.22;74.16;101555.31;5030117;28;20215;-72
2022/03/07 00:08:06;;;;;;;3.70;3.30;;;;;;;0.21;73.83;101553.69;5029970;28;20179;-72
2022/03/07 00:10:31;;;;;;;4.60;2.87;;;;;;;0.20;73.85;101555.53;5030122;28;20180;-73
2022/03/07 00:12:56;;;;;;;4.27;3.90;;;;;;;0.20;74.25;101554.72;5030401;28;20536;-73
2022/03/07 00:15:21;;;;;;;4.27;3.87;;;;;;;0.19;74.10;101542.31;5030328;28;20176;-73
2022/03/07 00:17:47;;;;;;;3.77;3.47;;;;;;;0.20;75.44;101542.09;5030100;28;20230;-73
2022/03/07 00:20:13;;;;;;;4.20;3.90;;;;;;;0.23;75.47;101552.41;5029982;28;20219;-72
2022/03/07 00:22:39;;;;;;;4.07;3.77;;;;;;;0.26;75.74;101548.47;5030147;28;20513;-72
2022/03/07 00:25:05;;;;;;;4.47;4.17;;;;;;;0.29;76.30;101546.19;5030000;28;20191;-73
2022/03/07 00:27:30;;;;;;;4.60;4.27;;;;;;;0.31;76.15;101551.34;5029448;28;20191;-75
2022/03/07 00:29:56;;;;;;;3.90;3.60;;;;;;;0.34;76.81;101555.47;5030047;28;20176;-72
2022/03/07 00:32:21;;;;;;;4.37;4.07;;;;;;;0.34;76.61;101552.78;5029981;28;20665;-72
2022/03/07 00:34:46;;;;;;;5.37;4.10;;;;;;;0.37;76.58;101557.72;5029975;28;20836;-73
2022/03/07 00:37:12;;;;;;;6.27;5.50;;;;;;;0.37;76.74;101555.03;5029752;28;20172;-72
2022/03/07 00:39:37;;;;;;;5.40;4.90;;;;;;;0.37;76.96;101558.53;5029579;28;20200;-73
2022/03/07 00:42:03;;;;;;;5.07;4.13;;;;;;;0.36;77.17;101561.44;5029817;28;20204;-73
2022/03/07 00:44:28;;;;;;;5.23;4.83;;;;;;;0.37;76.88;101563.09;5030010;28;20218;-73
2022/03/07 00:46:53;;;;;;;4.60;4.10;;;;;;;0.36;77.17;101562.28;5029565;28;20188;-75
2022/03/07 00:49:19;;;;;;;5.27;4.77;;;;;;;0.38;77.57;101567.44;5030068;28;20183;-73
2022/03/07 00:51:44;;;;;;;5.30;4.90;;;;;;;0.38;77.11;101564.72;5029761;28;20176;-72
2022/03/07 00:54:10;;;;;;;5.67;4.83;;;;;;;0.38;77.06;101562.03;5029621;28;20176;-72
2022/03/07 00:56:36;;;;;;;5.50;4.83;;;;;;;0.37;77.71;101563.91;5029525;28;20173;-72
2022/03/07 00:59:01;;;;;;;6.10;4.80;;;;;;;0.36;77.20;101567.66;5029679;28;20263;-72
2022/03/07 01:01:26;;;;;;;4.37;3.97;;;;;;;0.33;77.12;101565.41;5029697;28;20180;-72
2022/03/07 01:03:52;;;;;;;4.33;3.57;;;;;;;0.30;78.00;101568.53;5029716;28;20172;-73
2022/03/07 01:06:17;;;;;;;8.00;4.63;;;;;;;0.26;77.98;101561.91;5029591;28;20172;-73
2022/03/07 01:08:42;;;;;;;5.10;4.37;;;;;;;0.25;79.12;101557.56;5032921;28;20261;-73
2022/03/07 01:11:08;;;;;;;4.83;4.53;;;;;;;0.21;78.52;101562.56;5033318;28;20550;-72
2022/03/07 01:13:33;;;;;;;5.57;5.00;;;;;;;0.21;79.16;101565.25;5033245;28;20210;-73
2022/03/07 01:15:58;;;;;;;4.37;3.97;;;;;;;0.21;78.43;101569.81;5032967;28;20188;-72
2022/03/07 01:18:24;;;;;;;4.80;4.43;;;;;;;0.19;78.63;101561.94;5032847;28;20483;-72
2022/03/07 01:20:49;;;;;;;4.17;3.77;;;;;;;0.19;78.20;101561.13;5032873;28;20253;-73
2022/03/07 01:23:14;;;;;;;4.97;4.43;;;;;;;0.18;79.00;101560.31;5032881;28;20532;-72
2022/03/07 01:25:40;;;;;;;4.20;3.60;;;;;;;0.20;79.24;101560.09;5032881;28;20651;-72
2022/03/07 01:28:06;;;;;;;3.57;3.27;;;;;;;0.16;78.54;101562.41;5032580;28;20532;-72
2022/03/07 01:30:31;;;;;;;5.17;4.77;;;;;;;0.20;79.69;101557.41;5032820;28;20183;-73
2022/03/07 01:32:57;;;;;;;5.60;5.20;;;;;;;0.25;79.37;101555.72;5032786;28;20624;-72
2022/03/07 01:35:23;;;;;;;5.83;4.87;;;;;;;0.29;79.05;101565.00;5032683;28;20176;-74
2022/03/07 01:37:48;;;;;;;4.90;4.50;;;;;;;0.32;79.69;101565.59;5032409;28;20183;-72
2022/03/07 01:40:14;;;;;;;6.97;4.67;;;;;;;0.33;79.56;101541.19;5032166;28;20214;-73
2022/03/07 01:42:39;;;;;;;5.23;4.70;;;;;;;0.31;79.20;101545.16;5032627;28;20179;-72
2022/03/07 01:45:13;;;;;;;10.87;3.87;;;;;;;0.25;78.65;101550.34;5032566;28;20180;-72
2022/03/07 01:47:39;;;;;;;6.33;3.80;;;;;;;0.26;78.39;101551.97;5032159;28;20190;-72
2022/03/07 01:50:07;;;;;;;3.77;3.13;;;;;;;0.22;78.29;101542.72;5032404;28;20180;-73
2022/03/07 01:52:36;;;;;;;4.87;4.47;;;;;;;0.23;78.59;101541.66;5032490;28;20253;-72
2022/03/07 01:55:03;;;;;;;4.47;4.07;;;;;;;0.30;79.04;101547.03;5032201;28;20175;-72
2022/03/07 01:57:30;;;;;;;5.87;4.17;;;;;;;0.31;78.92;101550.53;5032207;28;20199;-72
2022/03/07 01:59:56;;;;;;;6.47;4.53;;;;;;;0.28;79.06;101547.22;5032165;28;20199;-75
2022/03/07 02:02:21;;;;;;;4.90;4.43;;;;;;;0.26;79.18;101538.53;5032336;28;20176;-73
2022/03/07 02:04:46;;;;;;;4.37;3.97;;;;;;;0.27;79.21;101539.38;5032374;28;20233;-72
2022/03/07 02:07:12;;;;;;;3.30;3.10;;;;;;;0.26;79.73;101541.22;5031801;28;20392;-72
2022/03/07 02:09:37;;;;;;;5.07;4.63;;;;;;;0.26;80.04;101541.22;5031998;28;20180;-72
2022/03/07 02:12:03;;;;;;;5.17;4.77;;;;;;;0.33;79.53;101543.06;5032038;28;20172;-72
2022/03/07 02:14:28;;;;;;;3.43;3.13;;;;;;;0.29;79.91;101542.69;5032016;28;20176;-72
2022/03/07 02:16:53;;;;;;;4.63;4.20;;;;;;;0.22;79.73;101537.34;5031701;28;20176;-72
2022/03/07 02:19:19;;;;;;;3.63;3.33;;;;;;;0.19;80.07;101531.56;5031284;28;20490;-72
2022/03/07 02:21:47;;;;;;;4.30;3.90;;;;;;;0.13;79.91;101533.25;5032000;28;20176;-73
2022/03/07 02:24:14;;;;;;;5.07;1.53;;;;;;;0.11;80.15;101527.25;5031801;28;20541;-72
2022/03/07 02:26:40;;;;;;;4.40;4.00;;;;;;;0.08;80.58;101529.56;5031599;28;20250;-72
2022/03/07 02:29:08;;;;;;;3.63;3.33;;;;;;;0.07;81.17;101530.59;5031454;28;20194;-73
2022/03/07 02:31:34;;;;;;;5.97;5.47;;;;;;;0.09;81.65;101536.59;5031592;28;20183;-72
2022/03/07 02:34:01;;;;;;;5.60;5.10;;;;;;;0.12;81.26;101528.91;5032195;28;20524;-73
2022/03/07 02:36:26;;;;;;;3.93;3.63;;;;;;;0.16;81.73;101527.47;5031540;28;20176;-73
2022/03/07 02:38:52;;;;;;;5.03;4.63;;;;;;;0.15;81.60;101522.31;5031190;28;20461;-73
2022/03/07 02:41:17;;;;;;;4.73;4.33;;;;;;;0.14;82.08;101524.13;5031042;28;20208;-72
2022/03/07 02:43:43;;;;;;;5.40;4.93;;;;;;;0.16;81.75;101532.00;5031388;28;20172;-73
2022/03/07 02:46:08;;;;;;;4.53;4.23;;;;;;;0.19;81.80;101532.41;5031374;28;20199;-72
2022/03/07 02:48:33;;;;;;;4.23;3.93;;;;;;;0.20;82.50;101541.28;5031576;28;20269;-72
2022/03/07 02:50:59;;;;;;;3.70;3.40;;;;;;;0.16;82.39;101534.69;5031275;28;20195;-73
2022/03/07 02:53:26;;;;;;;5.20;4.67;;;;;;;0.13;82.86;101540.47;5031129;28;20183;-71
2022/03/07 02:55:51;;;;;;;4.40;4.00;;;;;;;0.12;83.22;101538.84;5031207;28;20172;-73
2022/03/07 02:58:16;;;;;;;3.43;3.17;;;;;;;0.09;82.62;101533.91;5030739;28;20482;-73
2022/03/07 03:00:42;;;;;;;3.97;3.53;;;;;;;0.05;82.85;101524.63;5031064;28;20306;-75
2022/03/07 03:03:07;;;;;;;4.17;3.87;;;;;;;0.01;83.32;101526.09;5031039;28;20172;-72
2022/03/07 03:05:34;;;;;;;4.87;4.50;;;;;;;-0.02;83.63;101524.66;5030963;28;20179;-72
2022/03/07 03:07:59;;;;;;;3.30;3.10;;;;;;;-0.05;83.43;101520.53;5030813;28;20183;-72
2022/03/07 03:10:24;;;;;;;4.47;3.93;;;;;;;-0.07;84.69;101517.25;5030968;28;20521;-73
2022/03/07 03:12:50;;;;;;;7.30;5.07;;;;;;;-0.06;84.63;101523.44;5030855;28;20176;-72
2022/03/07 03:15:15;;;;;;;4.17;3.77;;;;;;;-0.08;84.56;101529.03;5030935;28;20187;-72
2022/03/07 03:17:42;;;;;;;4.57;4.17;;;;;;;-0.09;84.46;101527.38;5030582;28;20179;-72
2022/03/07 03:20:11;;;;;;;2.47;2.27;;;;;;;-0.08;85.04;101515.59;5030699;28;20567;-72
2022/03/07 03:22:40;;;;;;;4.00;3.70;;;;;;;-0.12;85.37;101525.13;5030761;28;20407;-73
2022/03/07 03:25:07;;;;;;;5.93;5.10;;;;;;;-0.08;85.30;101522.84;5030709;28;20182;-72
2022/03/07 03:27:33;;;;;;;4.27;3.87;;;;;;;-0.05;85.30;101519.72;5030010;28;20458;-72
2022/03/07 03:29:58;;;;;;;4.50;3.83;;;;;;;-0.06;84.70;101521.56;5029906;28;20237;-72
2022/03/07 03:32:26;;;;;;;6.50;5.87;;;;;;;-0.05;84.94;101522.41;5030908;28;20186;-76
2022/03/07 03:34:52;;;;;;;6.27;5.73;;;;;;;-0.04;84.44;101530.25;5030585;28;20176;-73
2022/03/07 03:37:18;;;;;;;5.27;4.47;;;;;;;-0.07;84.62;101529.84;5030365;28;20419;-73
2022/03/07 03:39:43;;;;;;;4.03;3.63;;;;;;;-0.10;85.00;101536.47;5030151;28;20203;-72
2022/03/07 03:42:08;;;;;;;4.03;3.63;;;;;;;-0.13;85.39;101531.53;5030980;28;20184;-74
2022/03/07 03:44:33;;;;;;;4.03;3.67;;;;;;;-0.17;85.76;101530.31;5030401;28;20168;-72
2022/03/07 03:46:59;;;;;;;5.23;4.77;;;;;;;-0.18;85.65;101527.84;5030147;28;20175;-72
2022/03/07 03:49:24;;;;;;;4.07;3.70;;;;;;;-0.16;85.49;101531.94;5030386;28;20267;-73
2022/03/07 03:51:49;;;;;;;5.73;5.20;;;;;;;-0.16;84.73;101523.88;5030353;28;20207;-73
2022/03/07 03:54:15;;;;;;;1.63;1.53;;;;;;;-0.18;85.03;101528.66;5030184;28;20266;-72
2022/03/07 03:56:40;;;;;;;3.63;2.37;;;;;;;-0.20;84.87;101530.72;5030415;28;20199;-72
2022/03/07 03:59:06;;;;;;;4.43;4.03;;;;;;;-0.21;85.14;101522.91;5012410;28;20214;-73
2022/03/07 04:01:31;;;;;;;5.00;4.60;;;;;;;-0.22;85.12;101518.56;5030439;28;20279;-73
2022/03/07 04:03:57;;;;;;;3.20;2.90;;;;;;;-0.22;85.78;101519.38;5030406;28;20176;-73
2022/03/07 04:06:22;;;;;;;3.50;3.20;;;;;;;-0.22;85.25;101534.66;5030101;28;20182;-72
2022/03/07 04:08:50;;;;;;;2.93;2.73;;;;;;;-0.25;86.13;101527.88;5029906;28;20175;-73
2022/03/07 04:11:16;;;;;;;3.00;2.80;;;;;;;-0.30;85.65;101515.06;5030182;28;20262;-72
2022/03/07 04:13:42;;;;;;;1.63;1.40;;;;;;;-0.39;85.55;101513.69;5030283;28;20453;-72
2022/03/07 04:16:08;;;;;;;3.27;3.07;;;;;;;-0.42;85.52;101519.47;5030178;28;20934;-72
2022/03/07 04:18:33;;;;;;;9.17;5.53;;;;;;;-0.47;85.67;101505.03;5029943;28;20182;-73
2022/03/07 04:20:59;;;;;;;4.60;4.20;;;;;;;-0.52;86.17;101513.72;5030084;28;20561;-72
2022/03/07 04:23:24;;;;;;;2.93;2.63;;;;;;;-0.65;87.03;101511.91;5029893;28;20207;-73
2022/03/07 04:25:50;;;;;;;4.33;3.83;;;;;;;-0.75;87.49;101511.50;5030050;28;20646;-72
2022/03/07 04:28:15;;;;;;;5.27;4.87;;;;;;;-0.83;88.75;101513.59;5029897;28;20210;-71
2022/03/07 04:30:42;;;;;;;4.17;3.77;;;;;;;-0.93;89.11;101522.06;5030025;28;20230;-72
2022/03/07 04:33:08;;;;;;;3.57;3.27;;;;;;;-1.02;89.55;101510.72;5029962;28;20179;-72
2022/03/07 04:35:34;;;;;;;5.60;3.67;;;;;;;-1.13;89.73;101510.56;5029876;28;20423;-74
2022/03/07 04:38:01;;;;;;;6.57;2.73;;;;;;;-1.31;90.05;101505.81;5029536;28;20422;-72
2022/03/07 04:40:27;;;;;;;3.03;2.73;;;;;;;-1.43;90.98;101513.66;5029709;28;20740;-73
2022/03/07 04:42:52;;;;;;;6.63;3.23;;;;;;;-1.46;92.00;101508.69;5033642;28;20423;-73
2022/03/07 04:45:18;;;;;;;3.93;3.60;;;;;;;-1.43;91.51;101518.19;5034100;28;20172;-73
2022/03/07 04:47:44;;;;;;;3.00;2.80;;;;;;;-1.46;91.56;101514.06;5033368;28;20636;-72
2022/03/07 04:50:12;;;;;;;3.63;3.43;;;;;;;-1.54;91.90;101511.59;5034272;28;20176;-73
2022/03/07 04:52:38;;;;;;;7.80;3.37;;;;;;;-1.59;92.12;101520.25;5016306;28;20526;-72
2022/03/07 04:55:04;;;;;;;2.73;2.53;;;;;;;-1.69;92.09;101522.50;5033613;28;20423;-72
2022/03/07 04:57:29;;;;;;;4.57;3.30;;;;;;;-1.74;92.66;101511.56;5033107;28;20178;-72
2022/03/07 04:59:54;;;;;;;3.17;2.90;;;;;;;-1.72;93.23;101532.81;5033307;28;20326;-74
2022/03/07 05:02:20;;;;;;;3.53;3.23;;;;;;;-1.78;93.54;101528.25;5033307;28;20643;-72
2022/03/07 05:04:45;;;;;;;3.53;3.23;;;;;;;-1.87;93.63;101522.28;5033255;28;20172;-73
2022/03/07 05:07:10;;;;;;;4.83;4.33;;;;;;;-1.91;93.88;101535.22;5032989;28;20262;-72
2022/03/07 05:09:36;;;;;;;3.73;3.53;;;;;;;-1.95;94.17;101536.66;5033268;28;20263;-72
2022/03/07 05:12:01;;;;;;;3.97;3.73;;;;;;;-1.95;94.25;101546.53;5033136;28;20175;-71
2022/03/07 05:14:27;;;;;;;4.93;4.43;;;;;;;-1.94;94.63;101549.00;5033145;28;20176;-71
2022/03/07 05:16:52;;;;;;;3.60;3.30;;;;;;;-1.95;94.61;101544.69;5032871;28;20180;-73
2022/03/07 05:19:18;;;;;;;4.90;4.43;;;;;;;-1.95;94.74;101550.03;5032927;28;20171;-72
2022/03/07 05:21:43;;;;;;;4.50;4.10;;;;;;;-1.98;94.72;101544.28;5033037;28;20172;-74
2022/03/07 05:24:09;;;;;;;5.13;3.50;;;;;;;-1.98;94.95;101547.78;5032929;28;20191;-73
2022/03/07 05:26:35;;;;;;;4.43;4.03;;;;;;;-2.01;95.34;101550.03;5032856;28;20187;-72
2022/03/07 05:29:00;;;;;;;4.67;4.27;;;;;;;-2.02;95.50;101557.25;5032587;28;20509;-73
2022/03/07 05:31:26;;;;;;;3.93;3.47;;;;;;;-2.07;95.69;101551.66;5032789;28;20411;-73
2022/03/07 05:33:51;;;;;;;4.43;3.30;;;;;;;-2.08;96.00;101552.69;5032640;28;20180;-73
2022/03/07 05:36:17;;;;;;;8.67;3.33;;;;;;;-2.12;95.65;101554.94;5032733;28;20167;-73
2022/03/07 05:38:42;;;;;;;3.80;3.50;;;;;;;-2.18;96.12;101553.03;5032651;28;20179;-73
2022/03/07 05:41:07;;;;;;;3.40;3.10;;;;;;;-2.21;96.36;101552.63;5032315;28;20215;-73
2022/03/07 05:43:34;;;;;;;8.13;4.10;;;;;;;-2.24;96.29;101553.84;5032614;28;20172;-74
2022/03/07 05:46:00;;;;;;;4.77;3.33;;;;;;;-2.26;96.76;101553.22;5032388;28;20200;-74
2022/03/07 05:48:25;;;;;;;3.40;3.10;;;;;;;-2.31;97.14;101549.50;5032195;28;20453;-74
2022/03/07 05:50:50;;;;;;;3.53;3.27;;;;;;;-2.21;97.41;101561.47;5032442;28;20255;-73
2022/03/07 05:53:19;;;;;;;4.07;3.77;;;;;;;-2.19;96.72;101553.25;5031603;28;20263;-75
2022/03/07 05:55:44;;;;;;;3.87;3.53;;;;;;;-2.19;96.61;101558.59;5032316;28;20168;-73
2022/03/07 05:58:10;;;;;;;2.97;2.77;;;;;;;-2.21;96.54;101564.16;5031986;28;20907;-73
2022/03/07 06:00:35;;;;;;;4.20;3.37;;;;;;;-2.21;96.36;101568.69;5032115;28;20742;-73
2022/03/07 06:03:00;;;;;;;2.73;2.53;;;;;;;-2.22;96.27;101567.84;5032346;28;20200;-73
2022/03/07 06:05:26;;;;;;;6.13;3.37;;;;;;;-2.28;95.83;101567.84;5032200;28;20180;-73
2022/03/07 06:07:51;;;;;;;3.23;3.00;;;;;;;-2.28;96.54;101562.50;5031883;28;20589;-73
2022/03/07 06:10:16;;;;;;;2.97;2.70;;;;;;;-2.31;96.62;101563.72;5032057;28;20204;-73
2022/03/07 06:12:42;;;;;;;3.70;3.00;;;;;;;-2.32;96.76;101567.38;5031981;28;20615;-73
2022/03/07 06:15:08;;;;;;;3.63;3.33;;;;;;;-2.36;96.90;101568.81;5031952;28;20180;-74
2022/03/07 06:17:36;;;;;;;3.77;3.33;;;;;;;-2.38;97.30;101576.22;5031594;28;20172;-72
2022/03/07 06:20:03;;;;;;;5.67;3.50;;;;;;;-2.40;97.27;101576.41;5014019;28;20239;-73
2022/03/07 06:22:28;;;;;;;5.23;3.40;;;;;;;-2.38;97.41;101578.91;5031883;28;20411;-73
2022/03/07 06:24:54;;;;;;;7.93;3.60;;;;;;;-2.35;97.63;101581.16;5031694;28;20794;-73
2022/03/07 06:27:19;;;;;;;3.80;3.40;;;;;;;-2.23;97.74;101586.78;5031209;28;20176;-72
2022/03/07 06:29:44;;;;;;;4.83;3.67;;;;;;;-2.18;97.30;101585.16;5031664;28;20230;-72
2022/03/07 06:32:10;;;;;;;4.23;3.83;;;;;;;-2.14;97.09;101591.78;5031600;28;20203;-73
2022/03/07 06:34:35;;;;;;;2.93;2.73;;;;;;;-2.11;96.72;101586.03;5031576;28;20207;-72
2022/03/07 06:37:01;;;;;;;3.53;3.23;;;;;;;-2.10;96.43;101579.66;5031259;28;20618;-73
2022/03/07 06:39:27;;;;;;;3.33;2.97;;;;;;;-2.03;96.02;101568.13;5031024;28;20610;-72
2022/03/07 06:41:56;;;;;;;2.37;2.17;;;;;;;-2.05;95.60;101573.69;5031316;28;20453;-73
2022/03/07 06:44:25;;;;;;;2.77;2.57;;;;;;;-2.02;95.28;101570.63;5031499;28;20172;-73
2022/03/07 06:46:50;;;;;;;3.83;3.50;;;;;;;-1.92;95.16;101581.75;5031164;28;20411;-72
2022/03/07 06:49:16;;;;;;;3.70;3.47;;;;;;;-1.82;94.46;101576.03;5031328;28;20419;-73
2022/03/07 06:51:41;;;;;;;3.33;3.13;;;;;;;-1.71;94.00;101585.34;5031357;28;20259;-72
2022/03/07 06:54:07;;;;;;;3.73;3.37;;;;;;;-1.62;93.61;101581.44;5031121;28;20199;-73
2022/03/07 06:56:33;;;;;;;8.07;3.33;;;;;;;-1.52;92.92;101585.38;5031094;28;20172;-73
2022/03/07 06:58:59;;;;;;;7.50;3.27;;;;;;;-1.41;91.74;101583.97;5030885;28;20414;-73
2022/03/07 07:01:25;;;;;;;4.60;4.20;;;;;;;-1.28;90.00;101586.66;5030965;28;20202;-73
2022/03/07 07:03:50;;;;;;;4.57;4.13;;;;;;;-1.14;89.55;101600.06;5030892;28;20418;-73
2022/03/07 07:06:15;;;;;;;4.70;3.97;;;;;;;-1.05;88.31;101594.28;5031035;28;20515;-73
2022/03/07 07:08:41;;;;;;;4.93;3.87;;;;;;;-0.94;87.68;101600.88;5030603;28;20187;-73
2022/03/07 07:11:06;;;;;;;6.33;4.63;;;;;;;-0.87;86.66;101608.91;5030830;28;20279;-72
2022/03/07 07:13:31;;;;;;;2.67;2.43;;;;;;;-0.81;85.93;101606.25;5030947;28;20208;-73
2022/03/07 07:15:57;;;;;;;4.53;3.70;;;;;;;-0.76;85.38;101619.84;5030857;28;20179;-73
2022/03/07 07:18:23;;;;;;;3.83;3.53;;;;;;;-0.71;85.60;101614.72;5030676;28;20208;-73
2022/03/07 07:20:50;;;;;;;4.57;3.63;;;;;;;-0.62;84.60;101623.34;5030755;28;20740;-75
2022/03/07 07:23:19;;;;;;;5.07;4.67;;;;;;;-0.55;84.66;101631.41;5030676;28;20427;-73
2022/03/07 07:25:45;;;;;;;3.27;2.97;;;;;;;-0.50;83.91;101629.75;5030658;28;20458;-73
2022/03/07 07:28:11;;;;;;;2.60;2.40;;;;;;;-0.44;83.47;101626.22;5030280;28;20980;-72
2022/03/07 07:30:37;;;;;;;5.07;4.47;;;;;;;-0.40;83.66;101632.84;5030643;28;20419;-73
2022/03/07 07:33:03;;;;;;;5.73;5.13;;;;;;;-0.34;83.14;101636.53;5030571;28;20607;-73
2022/03/07 07:35:28;;;;;;;4.40;3.93;;;;;;;-0.28;82.98;101633.03;5030895;28;20263;-73
2022/03/07 07:37:54;;;;;;;21.27;5.30;;;;;;;-0.23;83.32;101630.53;5030230;28;20255;-74
2022/03/07 07:40:20;;;;;;;2.63;2.43;;;;;;;-0.19;83.67;101642.47;5029877;28;20200;-73
2022/03/07 07:42:45;;;;;;;5.53;4.43;;;;;;;-0.17;83.57;101632.34;5030528;28;20199;-73
2022/03/07 07:45:12;;;;;;;18.30;4.33;;;;;;;-0.09;84.10;101645.56;5030520;28;20172;-73
2022/03/07 07:47:37;;;;;;;4.53;4.07;;;;;;;-0.07;83.86;101637.28;5030262;28;20176;-73
2022/03/07 07:50:03;;;;;;;4.70;3.97;;;;;;;0.01;83.99;101645.13;5030214;28;20422;-73
2022/03/07 07:52:29;;;;;;;4.30;3.90;;;;;;;0.08;84.39;101648.59;5030269;28;20175;-74
2022/03/07 07:54:54;;;;;;;7.63;7.03;;;;;;;0.15;84.22;101649.41;5030331;28;20601;-74
2022/03/07 07:57:19;;;;;;;5.97;5.37;;;;;;;0.22;83.13;101647.50;5030227;28;20180;-73
2022/03/07 07:59:45;;;;;;;6.70;2.63;;;;;;;0.32;83.52;101648.94;5030192;28;20286;-74
2022/03/07 08:02:10;;;;;;;5.50;5.00;;;;;;;0.29;83.06;101645.63;5030233;28;20199;-74
2022/03/07 08:04:35;;;;;;;7.13;6.43;;;;;;;0.29;83.44;101648.31;5030207;28;20180;-74
2022/03/07 08:07:01;;;;;;;7.60;6.20;;;;;;;0.40;83.59;101654.03;5030060;28;20647;-73
2022/03/07 08:09:26;;;;;;;4.67;4.27;;;;;;;0.49;83.71;101650.06;5030144;28;20164;-74
2022/03/07 08:11:51;;;;;;;2.37;2.27;;;;;;;0.49;84.44;101658.13;5030253;28;20210;-73
2022/03/07 08:14:17;;;;;;;4.50;4.20;;;;;;;0.46;83.88;101654.03;5030049;28;20271;-73
2022/03/07 08:16:42;;;;;;;2.20;2.03;;;;;;;0.50;84.32;101657.94;5032337;28;20176;-73
2022/03/07 08:19:08;;;;;;;5.77;5.27;;;;;;;0.58;84.53;101649.63;5033895;28;20218;-77
2022/03/07 08:21:33;;;;;;;6.40;5.80;;;;;;;0.63;84.56;101651.66;5034148;28;20184;-74
2022/03/07 08:24:01;;;;;;;8.63;6.63;;;;;;;0.68;85.17;101648.31;5033926;28;20186;-74
2022/03/07 08:26:28;;;;;;;2.67;2.50;;;;;;;0.72;84.65;101644.97;5034448;28;20207;-75
2022/03/07 08:28:53;;;;;;;8.37;7.30;;;;;;;0.75;84.86;101646.41;5016013;28;20187;-74
2022/03/07 08:31:19;;;;;;;7.63;6.37;;;;;;;0.85;84.84;101649.44;5033775;28;20187;-77
2022/03/07 08:33:44;;;;;;;7.37;4.90;;;;;;;0.93;84.53;101651.88;5033836;28;20195;-73
2022/03/07 08:36:09;;;;;;;12.10;7.83;;;;;;;0.99;84.36;101652.84;5034130;28;20255;-73
2022/03/07 08:38:35;;;;;;;9.57;7.27;;;;;;;1.01;84.61;101653.47;5033564;28;20222;-74
2022/03/07 08:41:01;;;;;;;2.80;2.53;;;;;;;1.05;83.92;101660.91;5033402;28;20204;-73
2022/03/07 08:43:26;;;;;;;6.47;5.93;;;;;;;1.11;84.05;101661.88;5033828;28;20168;-73
2022/03/07 08:45:52;;;;;;;4.00;3.67;;;;;;;1.14;83.46;101659.56;5033523;28;20225;-73
2022/03/07 08:48:17;;;;;;;7.97;6.87;;;;;;;1.21;83.30;101653.31;5033420;28;20180;-74
2022/03/07 08:50:43;;;;;;;2.93;2.73;;;;;;;1.30;83.59;101665.44;5033676;28;20180;-74
2022/03/07 08:53:08;;;;;;;7.57;6.67;;;;;;;1.35;83.31;101657.56;5033718;28;20651;-74
2022/03/07 08:55:33;;;;;;;5.37;4.97;;;;;;;1.37;83.06;101660.84;5033437;28;20184;-74
2022/03/07 08:57:59;;;;;;;6.10;4.47;;;;;;;1.48;83.36;101655.56;5033558;28;20184;-74
2022/03/07 09:00:25;;;;;;;2.70;2.50;;;;;;;1.56;83.09;101662.53;5033351;28;20254;-73
2022/03/07 09:02:50;;;;;;;5.70;5.10;;;;;;;1.52;82.89;101661.34;5033374;28;20176;-73
2022/03/07 09:05:15;;;;;;;3.67;3.37;;;;;;;1.63;83.48;101662.47;5033468;28;20564;-73
2022/03/07 09:07:41;;;;;;;7.90;7.10;;;;;;;1.65;83.04;101669.28;5033184;28;20172;-73
2022/03/07 09:10:06;;;;;;;6.20;5.70;;;;;;;1.84;83.07;101664.75;5033302;28;20262;-74
2022/03/07 09:12:32;;;;;;;10.63;7.30;;;;;;;1.80;82.70;101663.53;5033253;28;20230;-73
2022/03/07 09:15:00;;;;;;;9.23;7.27;;;;;;;1.83;83.26;101667.66;5033086;28;20662;-74
2022/03/07 09:17:26;;;;;;;4.50;4.10;;;;;;;1.95;83.11;101666.69;5032861;28;20176;-74
2022/03/07 09:19:53;;;;;;;4.33;3.40;;;;;;;2.14;82.79;101666.69;5033028;28;20214;-74
2022/03/07 09:22:18;;;;;;;15.47;6.83;;;;;;;2.16;82.11;101665.41;5033180;28;20648;-73
2022/03/07 09:24:44;;;;;;;9.07;8.23;;;;;;;2.23;82.10;101671.56;5032889;28;20216;-74
2022/03/07 09:27:09;;;;;;;8.83;8.03;;;;;;;2.22;82.55;101664.53;5031594;28;20599;-73
2022/03/07 09:29:36;;;;;;;13.23;8.47;;;;;;;2.34;82.08;101662.72;5032477;28;20268;-74
2022/03/07 09:32:03;;;;;;;7.97;7.23;;;;;;;2.39;81.62;101665.56;5032928;28;20187;-73
2022/03/07 09:34:28;;;;;;;8.93;8.10;;;;;;;2.36;80.67;101660.63;5032786;28;20209;-73
2022/03/07 09:36:54;;;;;;;6.67;6.13;;;;;;;2.46;80.74;101654.69;5032853;28;20180;-73
2022/03/07 09:39:19;;;;;;;6.73;6.03;;;;;;;2.62;81.44;101664.03;5032641;28;20274;-74
2022/03/07 09:41:44;;;;;;;8.03;7.23;;;;;;;2.67;81.23;101670.38;5032129;28;20230;-74
2022/03/07 09:44:10;;;;;;;6.90;5.73;;;;;;;2.71;80.75;101665.34;5032593;28;20215;-74
2022/03/07 09:46:36;;;;;;;8.77;7.83;;;;;;;2.61;79.94;101654.28;5032481;28;20238;-74
2022/03/07 09:49:03;;;;;;;18.53;6.67;;;;;;;2.71;79.83;101659.13;5032476;28;20175;-74
2022/03/07 09:51:28;;;;;;;6.43;5.83;;;;;;;2.69;79.62;101665.56;5032631;28;20184;-74
2022/03/07 09:53:54;;;;;;;8.27;7.57;;;;;;;2.73;79.45;101657.00;5032334;28;20194;-74
2022/03/07 09:56:19;;;;;;;7.60;6.90;;;;;;;2.86;79.53;101667.63;5032323;28;20171;-74
2022/03/07 09:58:45;;;;;;;8.80;7.73;;;;;;;2.93;79.02;101671.88;5032119;28;20605;-73
2022/03/07 10:01:14;;;;;;;7.70;4.77;;;;;;;3.05;79.14;101663.81;5032236;28;20199;-73
2022/03/07 10:03:41;;;;;;;9.03;8.07;;;;;;;3.01;78.92;101662.59;5032162;28;20176;-74
2022/03/07 10:06:17;;;;;;;5.87;5.37;;;;;;;3.15;78.72;101671.31;5032280;28;20168;-74
2022/03/07 10:08:54;;;;;;;7.00;6.37;;;;;;;3.16;77.71;101660.28;5032186;28;20163;-73
2022/03/07 10:11:20;;;;;;;7.93;7.13;;;;;;;3.16;77.43;101656.78;5032104;28;20172;-74
2022/03/07 10:14:04;;;;;;;7.00;6.40;;;;;;;3.28;77.51;101657.63;5032029;28;20176;-73
2022/03/07 10:16:40;;;;;;;8.30;7.60;;;;;;;3.44;77.66;101659.63;5032497;28;20176;-74
2022/03/07 10:19:09;;;;;;;9.87;7.27;;;;;;;3.48;77.01;101647.31;5031856;28;20665;-74
2022/03/07 10:21:34;;;;;;;7.33;6.67;;;;;;;3.54;75.65;101650.94;5031893;28;20294;-73
2022/03/07 10:24:00;;;;;;;7.30;6.43;;;;;;;3.30;74.79;101644.69;5031899;28;20279;-74
2022/03/07 10:26:33;;;;;;;7.13;5.60;;;;;;;3.40;74.78;101644.94;5031802;28;20527;-73
2022/03/07 10:28:59;;;;;;;5.83;5.33;;;;;;;3.44;75.03;101643.41;5031578;28;20180;-74
2022/03/07 10:31:25;;;;;;;9.33;6.13;;;;;;;3.35;75.14;101635.91;5031780;28;20542;-74
2022/03/07 10:34:08;;;;;;;7.40;6.73;;;;;;;3.27;74.84;101640.59;5031664;28;20538;-74
2022/03/07 10:36:38;;;;;;;7.87;6.73;;;;;;;3.30;74.06;101639.31;5031517;28;20168;-73
2022/03/07 10:39:07;;;;;;;6.73;5.23;;;;;;;3.35;72.94;101642.13;5031117;28;20196;-74
2022/03/07 10:41:36;;;;;;;7.80;6.17;;;;;;;3.32;73.00;101645.28;5031217;28;20208;-73
2022/03/07 10:44:04;;;;;;;8.43;7.00;;;;;;;3.36;73.58;101635.69;5031426;28;20172;-74
2022/03/07 10:46:29;;;;;;;7.57;6.27;;;;;;;3.38;73.93;101635.44;5031434;28;20167;-73
2022/03/07 10:48:54;;;;;;;3.13;2.90;;;;;;;3.48;73.81;101635.69;5031209;28;20230;-77
2022/03/07 10:51:20;;;;;;;7.27;5.40;;;;;;;3.59;73.35;101643.78;5031246;28;20176;-74
2022/03/07 10:53:47;;;;;;;6.27;5.43;;;;;;;3.84;73.18;101640.00;5031293;28;20172;-74
2022/03/07 10:56:15;;;;;;;9.17;7.13;;;;;;;4.01;72.80;101645.50;5031581;28;20183;-73
2022/03/07 10:58:49;;;;;;;8.00;7.03;;;;;;;4.24;71.98;101650.03;5031046;28;20639;-74
2022/03/07 11:01:27;;;;;;;3.67;3.00;;;;;;;4.08;66.22;101647.03;5031291;28;20215;-73
2022/03/07 11:03:52;;;;;;;4.27;3.13;;;;;;;4.48;67.03;101657.84;5031198;28;20175;-74
2022/03/07 11:06:18;;;;;;;5.20;4.23;;;;;;;4.72;66.12;101663.97;5031091;28;20172;-74
2022/03/07 11:08:46;;;;;;;36.73;3.13;;;;;;;4.80;65.81;101656.53;5030745;28;20516;-74
2022/03/07 11:11:13;;;;;;;3.47;3.00;;;;;;;4.83;65.92;101653.34;5030994;28;20218;-74
2022/03/07 11:13:39;;;;;;;4.00;3.30;;;;;;;4.80;65.28;101643.00;5030936;28;20172;-74
2022/03/07 11:16:05;;;;;;;5.63;4.00;;;;;;;4.97;65.62;101641.13;5030981;28;20218;-73
2022/03/07 11:18:32;;;;;;;5.57;5.07;;;;;;;4.80;65.23;101633.00;5030764;28;20169;-73
2022/03/07 11:20:58;;;;;;;5.87;4.33;;;;;;;4.64;65.16;101629.19;5030892;28;20560;-73
2022/03/07 11:23:24;;;;;;;11.13;4.67;;;;;;;4.94;65.53;101622.69;5030673;28;20172;-73